Time;durP1;ratioP1;P1;durP2;ratioP2;P2;SDS_P1;SDS_P2;PMS_P1;PMS_P2;Temp;Humidity;BMP_temperature;BMP_pressure;BME280_temperature;BME280_humidity;BME280_pressure;Samples;Min_cycle;Max_cycle;Signal;HPM_P1;HPM_P2
2022/12/18 00:00:21;;;;;;;26.23;16.95;;;;;;;-5.92;73.12;101555.75;10305196;28;20634;-57
2022/12/18 00:05:23;;;;;;;26.92;17.38;;;;;;;-5.93;73.68;101541.91;10346069;28;20046;-57
2022/12/18 00:10:24;;;;;;;29.65;18.48;;;;;;;-5.97;73.95;101547.94;10346261;28;20584;-57
2022/12/18 00:15:26;;;;;;;29.83;18.73;;;;;;;-5.91;73.99;101547.09;10319706;28;20054;-57
2022/12/18 00:20:28;;;;;;;30.52;18.02;;;;;;;-5.88;74.46;101552.31;10316610;28;20514;-58
2022/12/18 00:25:32;;;;;;;29.65;19.17;;;;;;;-5.73;74.07;101555.03;10331559;28;20576;-57
2022/12/18 00:30:33;;;;;;;29.92;18.92;;;;;;;-5.60;73.39;101557.69;10341144;28;20707;-57
2022/12/18 00:35:34;;;;;;;30.05;18.23;;;;;;;-5.69;73.80;101549.00;10334378;28;20903;-57
2022/12/18 00:40:36;;;;;;;27.42;17.30;;;;;;;-5.56;72.99;101543.91;10340001;28;20136;-56
2022/12/18 00:45:38;;;;;;;26.52;17.27;;;;;;;-5.62;72.54;101538.66;10343846;28;20061;-58
2022/12/18 00:50:39;;;;;;;30.65;19.35;;;;;;;-5.85;72.97;101541.97;10353511;28;20054;-57
2022/12/18 00:55:42;;;;;;;30.10;17.60;;;;;;;-6.01;73.70;101555.69;10326934;28;20085;-56
2022/12/18 01:00:44;;;;;;;27.05;17.63;;;;;;;-6.09;74.04;101559.09;10334683;28;20057;-57
2022/12/18 01:05:45;;;;;;;27.70;17.27;;;;;;;-6.08;73.74;101563.44;10328346;28;20164;-56
2022/12/18 01:10:47;;;;;;;30.90;18.08;;;;;;;-5.92;73.58;101558.34;10344805;28;20103;-57
2022/12/18 01:15:51;;;;;;;27.58;16.63;;;;;;;-5.85;72.53;101562.72;10329588;28;20136;-57
2022/12/18 01:20:52;;;;;;;26.93;16.37;;;;;;;-6.05;73.39;101560.84;10330716;28;20058;-57
2022/12/18 01:25:54;;;;;;;27.08;16.52;;;;;;;-6.02;73.03;101569.50;10312340;28;20061;-57
2022/12/18 01:30:56;;;;;;;22.73;16.00;;;;;;;-6.05;73.23;101575.53;10320404;28;20061;-57
2022/12/18 01:35:57;;;;;;;28.20;17.67;;;;;;;-6.04;73.61;101577.28;10328563;28;20150;-57
2022/12/18 01:41:00;;;;;;;29.67;18.70;;;;;;;-5.99;73.66;101585.09;10321464;28;20136;-57
2022/12/18 01:46:01;;;;;;;22.75;15.95;;;;;;;-6.02;74.13;101592.84;10328434;28;20715;-57
2022/12/18 01:51:05;;;;;;;28.92;17.45;;;;;;;-6.01;74.23;101582.47;10337515;28;20053;-61
2022/12/18 01:56:08;;;;;;;26.33;16.23;;;;;;;-5.91;73.71;101573.03;10326691;28;20104;-57
2022/12/18 02:01:10;;;;;;;27.83;16.27;;;;;;;-5.91;73.93;101576.50;10340651;28;20077;-57
2022/12/18 02:06:19;;;;;;;29.45;17.63;;;;;;;-5.88;73.23;101580.84;10314211;28;20065;-57
2022/12/18 02:11:33;;;;;;;28.98;17.13;;;;;;;-6.09;74.13;101569.44;10322822;28;20058;-56
2022/12/18 02:17:08;;;;;;;27.83;16.80;;;;;;;-6.08;74.04;101563.44;10323513;28;20037;-57
2022/12/18 02:22:29;;;;;;;27.33;17.23;;;;;;;-6.16;74.24;101572.84;10345713;28;20057;-63
2022/12/18 02:27:33;;;;;;;26.73;16.90;;;;;;;-6.09;74.21;101568.59;10323270;28;20050;-57
2022/12/18 02:32:39;;;;;;;26.52;17.27;;;;;;;-6.02;73.88;101554.81;10343103;28;20042;-56
2022/12/18 02:37:45;;;;;;;26.15;17.05;;;;;;;-5.85;74.01;101552.34;10324564;28;20049;-57
2022/12/18 02:42:49;;;;;;;30.63;18.85;;;;;;;-5.57;72.43;101556.00;10320507;28;20060;-57
2022/12/18 02:47:50;;;;;;;30.08;17.58;;;;;;;-5.68;71.92;101561.09;10331380;28;20049;-57
2022/12/18 02:53:01;;;;;;;26.48;16.77;;;;;;;-5.67;72.65;101567.19;10330508;28;20809;-58
2022/12/18 02:58:41;;;;;;;31.20;20.20;;;;;;;-5.53;71.44;101562.09;10345120;28;20678;-57
2022/12/18 03:03:57;;;;;;;29.98;18.65;;;;;;;-5.86;72.18;101563.56;10333929;28;20053;-57
2022/12/18 03:09:02;;;;;;;;;;;;;;;-5.80;72.04;101554.97;10336130;28;20650;-57
2022/12/18 03:14:06;;;;;;;28.77;17.55;;;;;;;-5.96;72.60;101575.59;10330985;28;19924;-57
2022/12/18 03:19:20;;;;;;;25.63;16.50;;;;;;;-6.05;72.90;101554.78;10327877;28;21467;-57
2022/12/18 03:24:23;;;;;;;28.23;16.77;;;;;;;-6.04;72.88;101556.53;10327413;28;20064;-56
2022/12/18 03:29:32;;;;;;;24.92;15.25;;;;;;;-5.79;72.90;101554.13;10333185;28;20652;-57
2022/12/18 03:34:38;;;;;;;27.75;16.48;;;;;;;-5.62;71.06;101554.25;10354251;28;20054;-56
2022/12/18 03:39:39;;;;;;;;;;;;;;;-5.50;71.04;101549.13;10331741;28;20132;-57
2022/12/18 03:44:40;;;;;;;27.13;16.25;;;;;;;-5.59;70.85;101551.66;10328953;28;19921;-57
2022/12/18 03:50:06;;;;;;;26.05;15.63;;;;;;;-5.39;70.00;101555.25;10323108;28;20192;-61
2022/12/18 03:55:13;;;;;;;26.85;17.48;;;;;;;-5.24;69.12;101561.38;10342577;28;20533;-58
2022/12/18 04:00:17;;;;;;;24.58;15.50;;;;;;;-5.36;68.61;101550.09;10332866;28;20053;-57
2022/12/18 04:05:20;;;;;;;23.00;16.92;;;;;;;-5.55;68.73;101556.03;10324628;28;20049;-57
2022/12/18 04:10:21;;;;;;;26.30;16.42;;;;;;;-5.72;69.84;101556.78;10333920;28;20049;-57
2022/12/18 04:15:23;;;;;;;26.27;15.73;;;;;;;-5.71;70.54;101550.69;10333277;28;20620;-57
2022/12/18 04:20:25;;;;;;;26.52;15.55;;;;;;;-5.53;68.94;101547.38;10333714;28;20060;-57
2022/12/18 04:25:27;;;;;;;25.25;16.70;;;;;;;-5.56;68.56;101547.34;10342290;28;20204;-57
2022/12/18 04:30:28;;;;;;;25.33;16.85;;;;;;;-5.71;69.52;101558.50;10336175;28;20621;-57
2022/12/18 04:35:30;;;;;;;25.70;15.50;;;;;;;-5.74;69.70;101544.63;10334063;28;20041;-56
2022/12/18 04:40:31;;;;;;;20.80;14.68;;;;;;;-5.68;70.72;101557.66;10342294;28;20232;-56
2022/12/18 04:45:33;;;;;;;22.15;14.77;;;;;;;-5.87;71.64;101536.78;10343622;28;20191;-58
2022/12/18 04:50:34;;;;;;;20.73;14.65;;;;;;;-5.99;71.91;101543.59;10320161;28;20758;-57
2022/12/18 04:55:36;;;;;;;23.00;15.13;;;;;;;-6.01;72.30;101537.53;10344404;28;20060;-59
2022/12/18 05:00:37;;;;;;;22.90;16.30;;;;;;;-5.87;72.56;101539.38;10353560;28;20068;-60
2022/12/18 05:05:39;;;;;;;28.58;16.77;;;;;;;-5.84;72.78;101537.63;10345484;28;20651;-57
2022/12/18 05:10:40;;;;;;;25.08;16.35;;;;;;;-5.87;72.85;101536.78;10335582;28;20052;-56
2022/12/18 05:15:42;;;;;;;25.88;18.73;;;;;;;-5.86;72.59;101551.44;10332709;28;20053;-57
2022/12/18 05:20:43;;;;;;;22.85;14.93;;;;;;;-5.75;72.68;101569.72;10325264;28;20049;-58
2022/12/18 05:25:59;;;;;;;25.02;16.25;;;;;;;-5.52;71.83;101561.22;10332976;28;20056;-57
2022/12/18 05:31:03;;;;;;;27.05;17.58;;;;;;;-5.46;71.19;101561.28;10338765;28;20042;-57
2022/12/18 05:36:07;;;;;;;25.40;18.90;;;;;;;-5.58;71.62;101561.19;10332110;28;20145;-57
2022/12/18 05:41:11;;;;;;;23.60;16.25;;;;;;;-5.73;72.46;101552.44;10325756;28;20227;-57
2022/12/18 05:46:18;;;;;;;24.02;17.45;;;;;;;-5.71;72.50;101544.66;10334857;28;20096;-61
2022/12/18 05:51:21;;;;;;;24.75;17.02;;;;;;;-5.72;71.99;101545.50;10342904;28;20710;-57
2022/12/18 05:56:23;;;;;;;25.25;16.45;;;;;;;-5.77;72.00;101545.47;10345390;28;20040;-60
2022/12/18 06:01:26;;;;;;;24.75;16.80;;;;;;;-5.87;71.70;101546.25;10340754;28;20045;-57
2022/12/18 06:06:28;;;;;;;23.10;16.25;;;;;;;-5.91;71.84;101557.47;10331199;28;20497;-57
2022/12/18 06:11:30;;;;;;;23.02;15.32;;;;;;;-5.87;71.14;101564.41;10344385;28;20053;-57
2022/12/18 06:16:31;;;;;;;23.73;16.48;;;;;;;-5.92;71.60;101566.09;10320408;28;20050;-57
2022/12/18 06:21:34;;;;;;;26.00;16.55;;;;;;;-5.99;71.87;101574.72;10343943;28;20061;-57
2022/12/18 06:26:38;;;;;;;24.00;16.42;;;;;;;-5.96;71.99;101567.81;10321630;28;20842;-56
2022/12/18 06:31:40;;;;;;;25.92;16.55;;;;;;;-5.95;71.74;101579.91;10361979;28;20049;-62
2022/12/18 06:36:41;;;;;;;23.40;15.45;;;;;;;-5.98;71.99;101584.25;10350126;28;20059;-58
2022/12/18 06:41:42;;;;;;;24.85;16.65;;;;;;;-5.99;71.92;101590.28;10339790;28;20141;-57
2022/12/18 06:46:44;;;;;;;25.10;15.40;;;;;;;-5.88;71.82;101599.00;10341458;28;20492;-58
2022/12/18 06:51:47;;;;;;;23.92;15.90;;;;;;;-5.94;70.97;101598.94;10349267;28;20121;-57
2022/12/18 06:56:50;;;;;;;21.60;15.70;;;;;;;-5.85;71.45;101596.44;10343793;28;20860;-57
2022/12/18 07:01:51;;;;;;;22.95;15.70;;;;;;;-5.85;71.76;101601.63;10342243;28;20507;-57
2022/12/18 07:06:53;;;;;;;22.02;15.27;;;;;;;-5.71;71.23;101596.53;10348691;28;20042;-64
2022/12/18 07:11:55;;;;;;;25.27;17.08;;;;;;;-5.80;71.15;101599.91;10350673;28;20045;-57
2022/12/18 07:16:58;;;;;;;22.58;15.55;;;;;;;-5.86;71.38;101618.88;10355768;28;20056;-57
2022/12/18 07:22:00;;;;;;;23.20;16.48;;;;;;;-5.89;71.28;101620.59;10337533;28;20064;-57
2022/12/18 07:27:02;;;;;;;25.92;17.48;;;;;;;-6.00;71.54;101614.47;10352314;28;20439;-57
2022/12/18 07:32:04;;;;;;;25.40;16.40;;;;;;;-5.90;71.85;101608.47;10344132;28;20049;-55
2022/12/18 07:37:06;;;;;;;25.10;16.42;;;;;;;-5.78;70.58;101603.41;10353018;28;20060;-57
2022/12/18 07:47:28;;;;;;;24.10;16.33;;;;;;;-5.85;69.94;101619.78;10344018;28;20049;-59
2022/12/18 07:52:31;;;;;;;24.90;16.13;;;;;;;-5.89;70.06;101618.84;10341771;28;20548;-60
2022/12/18 07:57:33;;;;;;;24.10;17.35;;;;;;;-5.87;69.89;101622.34;10342350;28;20829;-56
2022/12/18 08:02:51;;;;;;;23.05;16.95;;;;;;;-5.88;70.19;101619.75;10333726;28;20053;-56
2022/12/18 08:07:53;;;;;;;23.25;15.95;;;;;;;-5.87;70.61;101616.28;10332922;28;20049;-56
2022/12/18 08:12:55;;;;;;;24.83;16.48;;;;;;;-5.70;70.75;101619.03;10343229;28;21456;-56
2022/12/18 08:18:04;;;;;;;24.77;17.80;;;;;;;-5.57;70.73;101614.81;10333540;28;20057;-56
2022/12/18 08:23:11;;;;;;;29.50;19.38;;;;;;;-5.53;70.98;101619.16;10337823;28;20060;-56
2022/12/18 08:28:16;;;;;;;25.63;16.52;;;;;;;-5.26;71.06;101621.09;10306609;28;20054;-57
2022/12/18 08:33:17;;;;;;;26.80;17.77;;;;;;;-4.98;69.98;101621.28;10336031;28;20071;-56
2022/12/18 08:38:19;;;;;;;26.17;17.48;;;;;;;-5.02;70.72;101612.56;10339439;28;20053;-56
2022/12/18 08:48:44;;;;;;;23.45;16.48;;;;;;;-4.97;71.39;101603.09;10333391;28;20414;-56
2022/12/18 08:53:46;;;;;;;25.70;16.85;;;;;;;-4.86;71.56;101595.34;10327990;28;20049;-56
2022/12/18 08:58:51;;;;;;;25.27;17.42;;;;;;;-4.82;71.49;101575.44;10333733;28;20144;-57
2022/12/18 09:03:53;;;;;;;25.27;18.00;;;;;;;-4.67;71.25;101579.84;10340648;28;20049;-56
2022/12/18 09:08:54;;;;;;;29.27;19.55;;;;;;;-4.53;70.68;101598.97;10349064;28;20080;-56
2022/12/18 09:13:57;;;;;;;25.52;18.10;;;;;;;-4.52;69.61;101600.69;10344055;28;20145;-57
2022/12/18 09:18:59;;;;;;;29.92;22.83;;;;;;;-4.43;69.80;101607.63;10332938;28;20056;-57
2022/12/18 09:24:00;;;;;;;30.98;24.83;;;;;;;-4.25;68.71;101614.63;10328345;28;20653;-57
2022/12/18 09:29:03;;;;;;;53.75;38.78;;;;;;;-4.39;69.01;101614.59;10345153;28;20049;-59
2022/12/18 09:34:06;;;;;;;31.15;22.20;;;;;;;-4.41;68.88;101612.84;10343047;28;20049;-55
2022/12/18 09:39:07;;;;;;;29.75;21.27;;;;;;;-4.34;68.50;101615.50;10302578;28;20049;-56
2022/12/18 09:44:38;;;;;;;33.25;23.02;;;;;;;-4.27;68.11;101617.22;10330431;28;20673;-56
2022/12/18 09:49:49;;;;;;;35.03;23.45;;;;;;;-4.06;67.48;101618.13;10317867;28;20049;-57
2022/12/18 09:55:03;;;;;;;33.38;24.25;;;;;;;-3.87;66.94;101625.97;10325989;28;20063;-57
2022/12/18 10:00:11;;;;;;;34.40;25.33;;;;;;;-3.61;66.07;101624.25;10341500;28;20060;-57
2022/12/18 10:05:20;;;;;;;33.03;24.10;;;;;;;-3.37;64.45;101612.94;10339906;28;20061;-56
2022/12/18 10:10:46;;;;;;;37.15;25.52;;;;;;;-3.40;64.92;101622.50;10337011;28;20061;-56
2022/12/18 10:16:00;;;;;;;35.88;26.67;;;;;;;-3.40;65.21;101617.31;10315027;28;20042;-56
2022/12/18 10:21:11;;;;;;;35.17;25.02;;;;;;;-3.20;64.31;101620.75;10338992;28;20044;-56
2022/12/18 10:26:13;;;;;;;39.45;28.33;;;;;;;-2.74;63.95;101606.72;10337027;28;20049;-55
2022/12/18 10:31:21;;;;;;;36.90;26.60;;;;;;;-2.53;62.40;101597.09;10310380;28;20057;-57
2022/12/18 10:36:25;;;;;;;37.35;26.80;;;;;;;-2.17;61.25;101595.16;10326593;28;20143;-57
2022/12/18 10:41:27;;;;;;;36.72;25.65;;;;;;;-1.58;59.79;101595.56;10322516;28;20050;-56
2022/12/18 10:46:30;;;;;;;36.83;26.38;;;;;;;-1.32;57.73;101597.06;10334602;28;20060;-56
2022/12/18 10:51:35;;;;;;;34.47;24.83;;;;;;;-1.26;57.32;101597.03;10343237;28;20737;-56
2022/12/18 10:56:37;;;;;;;34.25;24.20;;;;;;;-0.84;57.09;101605.31;10342737;28;20054;-56
2022/12/18 11:01:48;;;;;;;34.83;24.65;;;;;;;-0.53;54.98;101594.44;10309215;28;20673;-56
2022/12/18 11:07:00;;;;;;;36.17;24.70;;;;;;;-0.03;53.66;101584.16;10324023;28;20045;-56
2022/12/18 11:12:14;;;;;;;39.83;25.58;;;;;;;0.76;51.52;101595.97;10340322;28;21060;-56
2022/12/18 11:17:22;;;;;;;33.40;24.48;;;;;;;1.87;48.80;101583.19;10345199;28;20048;-56
2022/12/18 11:22:35;;;;;;;35.38;24.67;;;;;;;2.90;45.90;101583.25;10352186;28;20077;-56
2022/12/18 11:27:39;;;;;;;33.75;25.08;;;;;;;3.17;45.15;101578.13;10344458;28;20054;-56
2022/12/18 11:32:45;;;;;;;34.25;25.05;;;;;;;3.28;44.50;101573.41;10332379;28;20699;-56
2022/12/18 11:37:57;;;;;;;31.40;24.20;;;;;;;3.53;43.73;101564.81;10325078;28;20520;-56
2022/12/18 11:43:25;;;;;;;34.92;25.70;;;;;;;3.15;44.79;101553.63;10336856;28;20053;-57
2022/12/18 11:48:37;;;;;;;34.65;25.55;;;;;;;3.23;44.19;101562.16;10275756;28;21002;-56
2022/12/18 11:53:39;;;;;;;32.22;25.65;;;;;;;2.44;46.35;101564.28;10350004;28;20060;-56
2022/12/18 11:58:54;;;;;;;33.70;26.05;;;;;;;1.95;47.52;101549.72;10343287;28;20129;-56
2022/12/18 12:04:14;;;;;;;37.22;27.40;;;;;;;2.03;47.93;101547.81;10338006;28;20095;-61
2022/12/18 12:09:34;;;;;;;36.75;26.27;;;;;;;1.43;49.45;101557.03;10350854;28;20128;-57
2022/12/18 12:15:04;;;;;;;35.53;24.92;;;;;;;0.99;51.37;101567.56;10339908;28;20053;-56
2022/12/18 12:20:41;;;;;;;35.92;24.88;;;;;;;0.29;53.81;101567.94;10336692;28;20041;-61
2022/12/18 12:25:52;;;;;;;37.50;25.67;;;;;;;-0.04;54.76;101557.13;10334039;28;20042;-59
2022/12/18 12:31:06;;;;;;;35.45;25.38;;;;;;;-0.22;55.57;101557.41;10338930;28;20045;-57
2022/12/18 12:36:10;;;;;;;33.80;23.27;;;;;;;-0.32;56.31;101555.81;10309806;28;20545;-60
2022/12/18 12:46:43;;;;;;;35.92;24.17;;;;;;;-0.75;57.94;101524.13;10300659;28;21153;-55
2022/12/18 12:51:56;;;;;;;36.28;25.75;;;;;;;-0.93;58.21;101532.19;10344050;28;20045;-59
2022/12/18 12:57:19;;;;;;;35.33;24.48;;;;;;;-1.36;60.37;101514.41;10338127;28;20049;-55
2022/12/18 13:02:37;;;;;;;33.15;23.60;;;;;;;-1.45;60.62;101518.84;10335130;28;20707;-56
2022/12/18 13:07:47;;;;;;;36.35;25.23;;;;;;;-1.35;61.52;101523.97;10339295;28;20054;-55
2022/12/18 13:13:06;;;;;;;37.00;24.90;;;;;;;-1.58;62.31;101517.22;10342521;28;20216;-55
2022/12/18 13:18:09;;;;;;;35.35;23.95;;;;;;;-1.68;62.48;101526.03;10344222;28;20053;-55
2022/12/18 13:23:23;;;;;;;39.38;24.33;;;;;;;-1.75;63.44;101508.72;10339915;28;20146;-56
2022/12/18 13:28:47;;;;;;;36.72;24.63;;;;;;;-1.56;62.85;101496.31;10328344;28;20422;-55
2022/12/18 13:33:49;;;;;;;35.85;22.75;;;;;;;-1.78;63.69;101507.84;10326667;28;20045;-55
2022/12/18 13:39:13;;;;;;;36.00;23.48;;;;;;;-1.79;63.87;101506.13;10338275;28;20716;-56
2022/12/18 13:44:33;;;;;;;34.63;23.38;;;;;;;-1.85;64.74;101507.91;10330434;28;20057;-54
2022/12/18 13:49:43;;;;;;;34.30;22.23;;;;;;;-1.94;64.90;101497.56;10329568;28;20689;-55
2022/12/18 13:54:51;;;;;;;37.70;23.83;;;;;;;-2.11;66.20;101479.44;10338762;28;20056;-56
2022/12/18 13:59:52;;;;;;;35.78;21.92;;;;;;;-2.08;66.88;101472.44;10343306;28;20143;-55
2022/12/18 14:04:54;;;;;;;32.33;22.85;;;;;;;-2.14;66.84;101469.91;10333442;28;20057;-56
2022/12/18 14:10:01;;;;;;;35.08;23.88;;;;;;;-2.29;68.17;101468.28;10338126;28;20060;-56
2022/12/18 14:15:28;;;;;;;36.58;23.17;;;;;;;-2.27;68.43;101473.47;10338320;28;20049;-57
2022/12/18 14:20:35;;;;;;;33.30;23.23;;;;;;;-2.24;68.82;101469.09;10322336;28;20080;-56
2022/12/18 14:25:37;;;;;;;39.10;24.58;;;;;;;-2.35;69.28;101476.16;10333159;28;20557;-56
2022/12/18 14:30:41;;;;;;;33.13;23.05;;;;;;;-2.38;70.05;101468.34;10334239;28;20063;-56
2022/12/18 14:36:01;;;;;;;33.03;22.55;;;;;;;-2.42;70.51;101469.25;10324698;28;20060;-56
2022/12/18 14:41:10;;;;;;;36.95;23.45;;;;;;;-2.45;70.87;101479.69;10339468;28;20053;-56
2022/12/18 14:46:45;;;;;;;34.95;22.45;;;;;;;-2.46;70.66;101470.13;10332035;28;20079;-56
2022/12/18 14:51:50;;;;;;;30.53;21.13;;;;;;;-2.46;71.14;101468.41;10332251;28;20091;-56
2022/12/18 14:57:05;;;;;;;36.92;24.20;;;;;;;-2.56;71.85;101459.78;10352772;28;20056;-55
2022/12/18 15:02:22;;;;;;;35.03;23.38;;;;;;;-2.57;71.92;101459.78;10346305;28;20111;-57
2022/12/18 15:07:24;;;;;;;37.65;23.45;;;;;;;-2.49;71.99;101455.41;10348134;28;20041;-57
2022/12/18 15:12:33;;;;;;;37.38;23.80;;;;;;;-2.50;72.30;101451.91;10346665;28;20162;-56
2022/12/18 15:17:34;;;;;;;34.08;22.73;;;;;;;-2.55;72.42;101448.47;10339818;28;20057;-55
2022/12/18 15:22:36;;;;;;;33.58;22.00;;;;;;;-2.53;72.35;101444.09;10354708;28;20053;-56
2022/12/18 15:27:38;;;;;;;34.85;22.98;;;;;;;-2.49;72.35;101448.44;10353924;28;20125;-54
2022/12/18 15:32:43;;;;;;;36.10;24.65;;;;;;;-2.42;72.11;101448.38;10338133;28;20192;-55
2022/12/18 15:37:45;;;;;;;40.63;25.48;;;;;;;-2.41;72.36;101431.88;10320306;28;20049;-56
2022/12/18 15:48:21;;;;;;;37.65;27.58;;;;;;;-2.42;72.27;101427.50;10351135;28;20697;-56
2022/12/18 15:53:25;;;;;;;40.15;26.33;;;;;;;-2.39;72.05;101427.50;10339015;28;20136;-56
2022/12/18 15:58:26;;;;;;;34.80;23.85;;;;;;;-2.31;71.49;101423.09;10340246;28;20057;-56
2022/12/18 16:03:28;;;;;;;37.83;25.67;;;;;;;-2.31;71.77;101418.72;10335791;28;20052;-56
2022/12/18 16:08:30;;;;;;;36.95;24.90;;;;;;;-2.20;71.11;101430.81;10331503;28;20096;-57
2022/12/18 16:13:32;;;;;;;38.78;26.23;;;;;;;-2.20;71.10;101408.19;10344245;28;20053;-57
2022/12/18 16:18:33;;;;;;;38.83;25.45;;;;;;;-2.13;70.52;101422.91;10315382;28;20069;-55
2022/12/18 16:23:34;;;;;;;36.20;25.38;;;;;;;-2.07;70.22;101413.28;10341319;28;20057;-55
2022/12/18 16:28:36;;;;;;;37.53;26.02;;;;;;;-2.05;70.58;101416.78;10328701;28;20057;-55
2022/12/18 16:33:37;;;;;;;36.90;22.80;;;;;;;-2.07;70.75;101408.06;10342453;28;20771;-55
2022/12/18 16:38:40;;;;;;;36.30;24.65;;;;;;;-2.02;70.85;101406.31;10325454;28;20052;-55
2022/12/18 16:43:42;;;;;;;37.38;25.65;;;;;;;-2.04;71.33;101385.44;10332643;28;20140;-59
2022/12/18 16:48:45;;;;;;;33.20;22.67;;;;;;;-2.03;71.20;101394.13;10346676;28;20140;-56
2022/12/18 16:53:46;;;;;;;32.20;22.08;;;;;;;-1.95;71.16;101392.31;10328092;28;20065;-57
2022/12/18 16:58:58;;;;;;;35.63;23.85;;;;;;;-2.01;71.33;101385.41;10324165;28;20050;-56
2022/12/18 17:04:04;;;;;;;35.75;22.77;;;;;;;-2.03;71.71;101381.94;10331065;28;20085;-56
2022/12/18 17:09:09;;;;;;;36.15;23.65;;;;;;;-2.04;71.81;101371.50;10321076;28;20528;-55
2022/12/18 17:14:17;;;;;;;37.58;24.85;;;;;;;-2.01;71.60;101376.69;10323240;28;20499;-55
2022/12/18 17:19:19;;;;;;;37.25;25.13;;;;;;;-1.93;71.80;101377.50;10330652;28;20053;-55
2022/12/18 17:24:22;;;;;;;44.78;29.13;;;;;;;-1.96;72.63;101385.34;10343283;28;20060;-56
2022/12/18 17:29:23;;;;;;;45.38;30.08;;;;;;;-1.95;72.03;101381.88;10344167;28;20617;-55
2022/12/18 17:34:26;;;;;;;52.00;32.45;;;;;;;-1.93;72.22;101380.09;10298894;28;20064;-55
2022/12/18 17:39:29;;;;;;;61.40;39.70;;;;;;;-1.85;71.76;101375.66;10316399;28;20583;-55
2022/12/18 17:44:33;;;;;;;43.40;27.73;;;;;;;-1.82;72.16;101370.44;10331170;28;20765;-56
2022/12/18 17:49:35;;;;;;;36.70;23.73;;;;;;;-1.82;72.25;101372.16;10340073;28;20972;-55
2022/12/18 17:54:38;;;;;;;37.88;25.40;;;;;;;-1.86;72.02;101367.84;10343920;28;20045;-56
2022/12/18 17:59:40;;;;;;;37.45;25.67;;;;;;;-1.84;72.26;101374.78;10328411;28;20061;-55
2022/12/18 18:04:41;;;;;;;36.30;23.77;;;;;;;-1.81;72.36;101369.53;10331178;28;20056;-55
2022/12/18 18:09:43;;;;;;;37.60;27.13;;;;;;;-1.76;72.09;101376.44;10342103;28;20156;-55
2022/12/18 18:14:44;;;;;;;36.88;25.70;;;;;;;-1.73;72.28;101365.97;10339248;28;20049;-56
2022/12/18 18:19:46;;;;;;;41.30;27.38;;;;;;;-1.70;72.56;101371.16;10328869;28;20130;-58
2022/12/18 18:24:50;;;;;;;36.65;25.77;;;;;;;-1.67;72.50;101365.88;10353676;28;20061;-55
2022/12/18 18:29:51;;;;;;;37.03;24.92;;;;;;;-1.66;72.41;101362.41;10348044;28;20053;-55
2022/12/18 18:34:54;;;;;;;32.15;22.77;;;;;;;-1.65;72.20;101369.34;10353784;28;20179;-56
2022/12/18 18:39:56;;;;;;;31.38;19.98;;;;;;;-1.64;72.48;101356.25;10349326;28;20613;-55
2022/12/18 18:44:58;;;;;;;34.65;22.58;;;;;;;-1.67;72.78;101353.69;10338451;28;20049;-56
2022/12/18 18:49:59;;;;;;;32.90;21.63;;;;;;;-1.69;72.62;101362.44;10301875;28;20513;-55
2022/12/18 18:55:01;;;;;;;36.35;22.40;;;;;;;-1.66;72.27;101358.03;10331290;28;20134;-55
2022/12/18 19:00:15;;;;;;;38.47;28.20;;;;;;;-1.62;72.27;101345.81;10325640;28;20536;-55
2022/12/18 19:05:16;;;;;;;33.47;22.23;;;;;;;-1.64;72.32;101334.50;10343577;28;20061;-56
2022/12/18 19:10:18;;;;;;;32.17;22.05;;;;;;;-1.64;72.08;101337.13;10323130;28;20101;-55
2022/12/18 19:15:20;;;;;;;33.42;22.48;;;;;;;-1.68;72.35;101317.16;10337780;28;20049;-56
2022/12/18 19:20:22;;;;;;;34.38;22.92;;;;;;;-1.64;72.42;101311.00;10319106;28;20061;-56
2022/12/18 19:25:24;;;;;;;30.65;21.85;;;;;;;-1.58;71.88;101307.47;10333856;28;20058;-56
2022/12/18 19:30:41;;;;;;;31.38;21.75;;;;;;;-1.54;72.59;101302.19;10346667;28;20606;-56
2022/12/18 19:35:43;;;;;;;35.40;22.55;;;;;;;-1.52;72.88;101303.00;10338710;28;20068;-56
2022/12/18 19:40:45;;;;;;;32.72;22.10;;;;;;;-1.51;73.29;101307.38;10301735;28;20045;-58
2022/12/18 19:45:53;;;;;;;35.28;23.70;;;;;;;-1.49;72.91;101302.97;10340256;28;20536;-56
2022/12/18 19:50:55;;;;;;;33.13;22.90;;;;;;;-1.45;72.46;101291.59;10340989;28;20104;-56
2022/12/18 19:55:56;;;;;;;31.67;22.52;;;;;;;-1.38;72.36;101283.69;10326141;28;20064;-57
2022/12/18 20:01:00;;;;;;;33.78;24.02;;;;;;;-1.38;72.32;101284.56;10335695;28;20061;-56
2022/12/18 20:06:28;;;;;;;34.95;23.83;;;;;;;-1.39;72.07;101292.41;10345261;28;20061;-56
2022/12/18 20:11:30;;;;;;;;;;;;;;;-1.39;71.93;101284.59;10312583;28;20053;-54
2022/12/18 20:16:33;;;;;;;34.15;23.38;;;;;;;-1.42;72.17;101286.34;10339001;28;20477;-53
2022/12/18 20:21:35;;;;;;;34.05;23.42;;;;;;;-1.39;71.80;101300.25;10335638;28;20055;-54
2022/12/18 20:26:37;;;;;;;33.83;23.50;;;;;;;-1.34;71.99;101285.38;10347573;28;20053;-56
2022/12/18 20:31:39;;;;;;;31.67;22.35;;;;;;;-1.40;71.85;101290.69;10343978;28;20081;-59
2022/12/18 20:36:41;;;;;;;30.98;22.63;;;;;;;-1.39;71.88;101271.53;10316141;28;20054;-55
2022/12/18 20:41:44;;;;;;;33.58;22.85;;;;;;;-1.34;71.77;101277.53;10342683;28;20073;-56
2022/12/18 20:46:45;;;;;;;32.15;22.98;;;;;;;-1.35;71.16;101289.75;10317739;28;20056;-56
2022/12/18 20:51:55;;;;;;;31.38;21.88;;;;;;;-1.26;70.83;101276.53;10347306;28;20293;-56
2022/12/18 20:56:56;;;;;;;31.77;22.73;;;;;;;-1.49;70.61;101268.16;10297769;28;20100;-56
2022/12/18 21:01:58;;;;;;;32.42;22.70;;;;;;;-1.46;70.44;101279.41;10337594;28;21422;-59
2022/12/18 21:07:01;;;;;;;32.72;22.85;;;;;;;-1.42;70.97;101268.06;10320409;28;20053;-56
2022/12/18 21:17:27;;;;;;;33.38;23.33;;;;;;;-1.45;69.96;101288.13;10342168;28;21605;-55
2022/12/18 21:22:29;;;;;;;23.52;16.55;;;;;;;-1.40;70.54;101277.63;10337540;28;20041;-55
2022/12/18 21:27:30;;;;;;;31.48;23.02;;;;;;;-1.35;69.76;101278.41;10310455;28;20060;-56
2022/12/18 21:32:32;;;;;;;32.72;22.45;;;;;;;-1.25;69.71;101275.66;10333352;28;20053;-56
2022/12/18 21:37:34;;;;;;;32.75;22.98;;;;;;;-1.26;70.15;101280.91;10347224;28;20060;-57
2022/12/18 21:47:55;;;;;;;31.73;21.42;;;;;;;-1.27;69.80;101271.34;10338647;28;20045;-55
2022/12/18 21:52:57;;;;;;;33.72;22.95;;;;;;;-1.21;69.48;101275.63;10324428;28;20583;-55
2022/12/18 21:57:58;;;;;;;31.80;22.00;;;;;;;-1.24;70.07;101276.50;10331156;28;20052;-56
2022/12/18 22:03:00;;;;;;;34.63;22.80;;;;;;;-1.23;69.14;101277.38;10345922;28;20054;-55
2022/12/18 22:08:19;;;;;;;32.33;21.60;;;;;;;-1.20;69.35;101277.31;10337227;28;20778;-56
2022/12/18 22:13:21;;;;;;;34.00;22.70;;;;;;;-1.15;68.79;101271.13;10316716;28;20083;-56
2022/12/18 22:18:23;;;;;;;31.15;21.98;;;;;;;-1.19;68.92;101272.06;10342181;28;20541;-56
2022/12/18 22:23:25;;;;;;;33.88;23.17;;;;;;;-1.23;69.30;101266.91;10333382;28;20050;-55
2022/12/18 22:33:50;;;;;;;32.42;22.13;;;;;;;-1.14;69.34;101274.59;10340174;28;20079;-56
2022/12/18 22:38:51;;;;;;;34.25;23.27;;;;;;;-1.13;69.58;101263.28;10319259;28;20189;-55
2022/12/18 22:43:53;;;;;;;31.15;21.38;;;;;;;-1.08;69.42;101267.56;10341509;28;20115;-55
2022/12/18 22:48:55;;;;;;;33.15;21.40;;;;;;;-1.07;69.73;101253.59;10333830;28;20053;-55
2022/12/18 22:53:57;;;;;;;32.83;22.55;;;;;;;-1.08;69.42;101253.63;10322404;28;20059;-55
2022/12/18 22:58:58;;;;;;;35.65;24.90;;;;;;;-1.06;69.50;101251.84;10321010;28;20057;-55
2022/12/18 23:04:00;;;;;;;37.97;26.95;;;;;;;-1.09;69.31;101239.69;10335836;28;20052;-55
2022/12/18 23:09:02;;;;;;;34.17;23.58;;;;;;;-1.05;68.87;101237.91;10323351;28;20812;-56
2022/12/18 23:14:04;;;;;;;33.17;22.63;;;;;;;-1.10;68.62;101231.88;10339223;28;20053;-56
2022/12/18 23:19:05;;;;;;;37.00;23.67;;;;;;;-1.05;68.54;101242.25;10345704;28;20121;-55
2022/12/18 23:24:07;;;;;;;34.40;22.60;;;;;;;-1.07;68.84;101235.31;10340737;28;20046;-56
2022/12/18 23:29:09;;;;;;;31.77;21.27;;;;;;;-1.05;68.66;101229.16;10347347;28;20652;-55